Time;durP1;ratioP1;P1;durP2;ratioP2;P2;SDS_P1;SDS_P2;PMS_P1;PMS_P2;Temp;Humidity;BMP_temperature;BMP_pressure;BME280_temperature;BME280_humidity;BME280_pressure;Samples;Min_cycle;Max_cycle;Signal;HPM_P1;HPM_P2
2022/04/15 00:01:32;;;;;;;7.55;4.22;;;13.70;99.90;;;;;;5092901;28;20024;-77
2022/04/15 00:03:58;;;;;;;6.85;3.58;;;13.70;99.90;;;;;;5092211;28;20020;-78
2022/04/15 00:06:24;;;;;;;6.82;3.70;;;13.50;99.90;;;;;;5093704;28;20020;-78
2022/04/15 00:08:50;;;;;;;7.32;4.07;;;13.60;99.90;;;;;;5092420;28;20145;-78
2022/04/15 00:11:16;;;;;;;6.15;4.40;;;13.50;99.90;;;;;;5092078;28;20468;-78
2022/04/15 00:13:41;;;;;;;7.30;4.55;;;13.60;99.90;;;;;;5093882;28;20016;-78
2022/04/15 00:16:08;;;;;;;10.18;5.32;;;13.60;99.90;;;;;;5092083;28;20108;-78
2022/04/15 00:18:34;;;;;;;8.02;4.78;;;13.60;99.90;;;;;;5092666;28;20027;-77
2022/04/15 00:21:01;;;;;;;6.97;5.00;;;13.60;99.90;;;;;;5092125;28;20030;-78
2022/04/15 00:23:27;;;;;;;8.70;5.00;;;13.50;99.90;;;;;;5092546;28;20017;-78
2022/04/15 00:25:54;;;;;;;10.40;4.80;;;13.50;99.90;;;;;;5093574;28;20020;-78
2022/04/15 00:28:20;;;;;;;6.78;4.15;;;13.50;99.90;;;;;;5092200;28;20028;-78
2022/04/15 00:30:46;;;;;;;11.00;4.57;;;13.40;99.90;;;;;;5093610;28;20063;-77
2022/04/15 00:33:12;;;;;;;5.93;3.88;;;13.50;99.90;;;;;;5091742;28;20027;-78
2022/04/15 00:35:38;;;;;;;7.05;3.75;;;13.40;99.90;;;;;;5092683;28;20016;-78
2022/04/15 00:38:04;;;;;;;6.30;3.83;;;13.30;99.90;;;;;;5091997;28;20028;-78
2022/04/15 00:40:30;;;;;;;9.50;4.10;;;13.20;99.90;;;;;;5092892;28;20457;-78
2022/04/15 00:42:56;;;;;;;7.95;3.83;;;13.20;99.90;;;;;;5092366;28;20073;-78
2022/04/15 00:45:21;;;;;;;5.05;3.88;;;13.10;99.90;;;;;;5092088;28;20150;-77
2022/04/15 00:47:51;;;;;;;8.32;3.90;;;13.00;99.90;;;;;;5092433;28;20028;-77
2022/04/15 00:50:19;;;;;;;5.90;3.53;;;13.00;99.90;;;;;;5093083;28;20077;-77
2022/04/15 00:52:47;;;;;;;5.95;3.65;;;12.90;99.90;;;;;;5092179;28;20115;-77
2022/04/15 00:55:14;;;;;;;5.88;3.47;;;12.90;99.90;;;;;;5092590;28;20027;-78
2022/04/15 00:57:42;;;;;;;6.90;3.92;;;12.80;99.90;;;;;;5093411;28;20111;-77
2022/04/15 01:00:10;;;;;;;7.72;4.00;;;12.70;99.90;;;;;;5092021;28;20097;-78
2022/04/15 01:02:38;;;;;;;7.20;3.95;;;12.70;99.90;;;;;;5093434;28;20020;-77
2022/04/15 01:05:06;;;;;;;6.18;3.60;;;12.70;99.90;;;;;;5092820;28;20502;-78
2022/04/15 01:07:39;;;;;;;7.18;4.05;;;12.70;99.90;;;;;;5093690;28;20016;-77
2022/04/15 01:10:07;;;;;;;7.47;3.63;;;12.70;99.90;;;;;;5096781;28;20020;-77
2022/04/15 01:12:36;;;;;;;6.40;3.90;;;12.70;99.90;;;;;;5097204;28;20020;-78
2022/04/15 01:15:05;;;;;;;7.25;3.90;;;12.70;99.90;;;;;;5095582;28;20016;-78
2022/04/15 01:17:33;;;;;;;6.97;4.75;;;12.60;99.90;;;;;;5095938;28;20362;-78
2022/04/15 01:20:00;;;;;;;12.82;5.65;;;12.60;99.90;;;;;;5096056;28;20028;-78
2022/04/15 01:22:32;;;;;;;9.45;4.82;;;12.60;99.90;;;;;;5096924;28;20104;-78
2022/04/15 01:24:57;;;;;;;;;;;12.60;99.90;;;;;;5097454;28;20027;-77
2022/04/15 01:27:28;;;;;;;8.15;4.95;;;12.70;99.90;;;;;;5095062;28;19904;-77
2022/04/15 01:29:53;;;;;;;9.00;5.38;;;12.50;99.90;;;;;;5096874;28;20020;-77
2022/04/15 01:32:19;;;;;;;8.77;5.18;;;12.50;99.90;;;;;;5095085;28;20024;-78
2022/04/15 01:34:45;;;;;;;7.85;5.22;;;12.40;99.90;;;;;;5095672;28;20462;-78
2022/04/15 01:37:14;;;;;;;36.22;19.05;;;12.30;99.90;;;;;;5095153;28;20020;-77
2022/04/15 01:39:40;;;;;;;42.70;21.30;;;12.20;99.90;;;;;;5096477;28;20032;-77
2022/04/15 01:42:10;;;;;;;34.78;17.80;;;12.20;99.90;;;;;;5094975;28;20418;-77
2022/04/15 01:44:36;;;;;;;29.83;15.25;;;12.20;99.90;;;;;;5095305;28;20024;-78
2022/04/15 01:47:01;;;;;;;24.67;12.05;;;12.10;99.90;;;;;;5096529;28;20115;-77
2022/04/15 01:49:27;;;;;;;21.10;11.40;;;12.10;99.90;;;;;;5096031;28;20475;-78
2022/04/15 01:51:52;;;;;;;16.67;9.55;;;12.20;99.90;;;;;;5096247;28;20078;-77
2022/04/15 01:54:18;;;;;;;20.33;10.60;;;12.20;99.90;;;;;;5095861;28;20024;-77
2022/04/15 01:56:44;;;;;;;15.05;9.50;;;12.20;99.90;;;;;;5096205;28;20044;-77
2022/04/15 01:59:09;;;;;;;12.05;6.88;;;12.20;99.90;;;;;;5095842;28;20028;-77
2022/04/15 02:01:36;;;;;;;11.18;6.40;;;12.10;99.90;;;;;;5095268;28;20073;-78
2022/04/15 02:04:02;;;;;;;8.60;5.40;;;12.00;99.90;;;;;;5095166;28;20115;-77
2022/04/15 02:06:27;;;;;;;10.52;5.68;;;12.00;99.90;;;;;;5095515;28;20027;-78
2022/04/15 02:08:53;;;;;;;11.77;6.22;;;11.90;99.90;;;;;;5095102;28;20028;-77
2022/04/15 02:11:19;;;;;;;9.23;5.80;;;11.80;99.90;;;;;;5094510;28;20024;-77
2022/04/15 02:13:45;;;;;;;11.63;5.57;;;11.80;99.90;;;;;;5095811;28;20433;-77
2022/04/15 02:16:10;;;;;;;9.23;5.25;;;11.80;99.90;;;;;;5095355;28;20055;-78
2022/04/15 02:18:36;;;;;;;7.90;5.13;;;11.80;99.90;;;;;;5095370;28;20031;-78
2022/04/15 02:21:02;;;;;;;7.90;5.10;;;11.80;99.90;;;;;;5095506;28;20024;-77
2022/04/15 02:23:28;;;;;;;11.95;5.20;;;11.80;99.90;;;;;;5094323;28;20027;-78
2022/04/15 02:25:53;;;;;;;9.77;5.10;;;11.70;99.90;;;;;;5094582;28;20028;-77
2022/04/15 02:28:19;;;;;;;9.70;5.30;;;11.70;99.90;;;;;;5095161;28;20032;-78
2022/04/15 02:30:47;;;;;;;8.73;4.72;;;11.60;99.90;;;;;;5095734;28;20341;-78
2022/04/15 02:33:14;;;;;;;10.90;5.05;;;11.60;99.90;;;;;;5093753;28;20031;-78
2022/04/15 02:35:39;;;;;;;10.25;4.70;;;11.60;99.90;;;;;;5093971;28;20016;-77
2022/04/15 02:38:05;;;;;;;9.18;4.70;;;11.60;99.90;;;;;;5095145;28;20028;-77
2022/04/15 02:40:31;;;;;;;7.10;4.95;;;11.70;99.90;;;;;;5093841;28;20035;-77
2022/04/15 02:42:57;;;;;;;7.75;4.80;;;11.70;99.90;;;;;;5095069;28;20020;-77
2022/04/15 02:45:22;;;;;;;8.38;4.93;;;11.70;99.90;;;;;;5093225;28;20048;-77
2022/04/15 02:47:48;;;;;;;8.35;4.82;;;11.70;99.90;;;;;;5095197;28;20023;-77
2022/04/15 02:50:14;;;;;;;8.80;4.97;;;11.60;99.90;;;;;;5093379;28;20031;-77
2022/04/15 02:52:40;;;;;;;9.50;5.20;;;11.60;99.90;;;;;;5093507;28;20103;-78
2022/04/15 02:55:06;;;;;;;9.60;5.30;;;11.50;99.90;;;;;;5094807;28;20020;-77
2022/04/15 02:57:32;;;;;;;7.53;5.20;;;11.50;99.90;;;;;;5094245;28;20218;-77
2022/04/15 02:59:58;;;;;;;7.80;5.25;;;11.50;99.90;;;;;;5093409;28;20095;-77
2022/04/15 03:02:25;;;;;;;10.20;5.60;;;11.60;99.90;;;;;;5094170;28;20020;-77
2022/04/15 03:04:51;;;;;;;9.27;5.25;;;11.60;99.90;;;;;;5093423;28;20368;-77
2022/04/15 03:07:17;;;;;;;8.20;5.15;;;11.60;99.90;;;;;;5092353;28;20072;-78
2022/04/15 03:09:43;;;;;;;7.53;5.10;;;11.50;99.90;;;;;;5094448;28;20099;-77
2022/04/15 03:12:09;;;;;;;10.98;5.43;;;11.50;99.90;;;;;;5093001;28;20016;-77
2022/04/15 03:14:35;;;;;;;7.63;4.82;;;11.40;99.90;;;;;;5093219;28;20028;-77
2022/04/15 03:17:01;;;;;;;7.50;5.18;;;11.40;99.90;;;;;;5093233;28;20134;-77
2022/04/15 03:19:26;;;;;;;6.90;4.80;;;11.40;99.90;;;;;;5093950;28;20027;-77
2022/04/15 03:21:52;;;;;;;6.90;4.70;;;11.30;99.90;;;;;;5094216;28;20027;-77
2022/04/15 03:24:18;;;;;;;7.53;5.03;;;11.30;99.90;;;;;;5093899;28;20099;-78
2022/04/15 03:26:43;;;;;;;8.70;5.10;;;11.20;99.90;;;;;;5092991;28;20032;-77
2022/04/15 03:29:09;;;;;;;8.50;4.80;;;11.20;99.90;;;;;;5092627;28;20452;-78
2022/04/15 03:31:35;;;;;;;8.25;4.80;;;11.20;99.90;;;;;;5092974;28;20020;-77
2022/04/15 03:34:00;;;;;;;10.52;5.13;;;11.30;99.90;;;;;;5093025;28;20027;-77
2022/04/15 03:36:26;;;;;;;9.40;4.80;;;11.20;99.90;;;;;;5093560;28;20127;-77
2022/04/15 03:38:51;;;;;;;7.10;4.63;;;11.20;99.90;;;;;;5093999;28;20028;-77
2022/04/15 03:41:17;;;;;;;7.78;4.60;;;11.20;99.90;;;;;;5092480;28;20030;-78
2022/04/15 03:43:43;;;;;;;8.68;4.43;;;11.10;99.90;;;;;;5092801;28;20030;-77
2022/04/15 03:46:08;;;;;;;6.72;4.22;;;11.10;99.90;;;;;;5094017;28;20028;-77
2022/04/15 03:48:34;;;;;;;9.73;5.38;;;11.10;99.90;;;;;;5092488;28;20056;-78
2022/04/15 03:50:59;;;;;;;7.68;4.70;;;11.10;99.90;;;;;;5092445;28;20031;-77
2022/04/15 03:53:25;;;;;;;7.80;4.63;;;11.00;99.90;;;;;;5092194;28;20049;-77
2022/04/15 03:55:51;;;;;;;7.05;4.47;;;10.90;99.90;;;;;;5092413;28;20384;-77
2022/04/15 03:58:18;;;;;;;10.63;5.88;;;10.90;99.90;;;;;;5093633;28;20127;-77
2022/04/15 04:00:44;;;;;;;7.13;4.72;;;10.90;99.90;;;;;;5092537;28;20369;-77
2022/04/15 04:03:10;;;;;;;6.80;5.07;;;10.90;99.90;;;;;;5092546;28;20051;-77
2022/04/15 04:05:36;;;;;;;8.73;4.90;;;10.80;99.90;;;;;;5092369;28;20020;-77
2022/04/15 04:08:02;;;;;;;7.63;5.03;;;10.80;99.90;;;;;;5093829;28;20107;-77
2022/04/15 04:10:27;;;;;;;7.35;5.00;;;10.80;99.90;;;;;;5093298;28;20043;-77
2022/04/15 04:12:53;;;;;;;10.15;5.00;;;10.80;99.90;;;;;;5093703;28;20024;-77
2022/04/15 04:15:18;;;;;;;7.70;5.28;;;10.70;99.90;;;;;;5091895;28;20029;-77
2022/04/15 04:17:46;;;;;;;9.18;5.22;;;10.80;99.90;;;;;;5092607;28;20024;-77
2022/04/15 04:20:12;;;;;;;7.93;4.93;;;10.80;99.90;;;;;;5092074;28;20025;-78
2022/04/15 04:22:39;;;;;;;6.50;4.70;;;10.70;99.90;;;;;;5092435;28;20031;-77
2022/04/15 04:25:08;;;;;;;9.80;4.90;;;10.70;99.90;;;;;;5093191;28;20024;-77
2022/04/15 04:27:38;;;;;;;9.63;4.70;;;10.70;99.90;;;;;;5091858;28;20028;-77
2022/04/15 04:30:06;;;;;;;7.97;5.15;;;10.60;99.90;;;;;;5092392;28;20024;-77
2022/04/15 04:32:32;;;;;;;8.35;4.68;;;10.60;99.90;;;;;;5091724;28;20031;-77
2022/04/15 04:34:57;;;;;;;8.27;5.20;;;10.70;99.90;;;;;;5092599;28;20020;-77
2022/04/15 04:37:23;;;;;;;7.65;5.00;;;10.60;99.90;;;;;;5091986;28;20025;-77
2022/04/15 04:39:49;;;;;;;8.60;4.75;;;10.60;99.90;;;;;;5093307;28;20515;-77
2022/04/15 04:42:15;;;;;;;8.85;4.88;;;10.70;99.90;;;;;;5092510;28;20122;-77
2022/04/15 04:44:42;;;;;;;6.90;4.55;;;10.70;99.90;;;;;;5096320;28;20023;-77
2022/04/15 04:47:09;;;;;;;6.32;4.63;;;10.70;99.90;;;;;;5097343;28;20533;-77
2022/04/15 04:49:35;;;;;;;6.95;4.57;;;10.60;99.90;;;;;;5096064;28;20027;-77
2022/04/15 04:52:02;;;;;;;6.72;4.88;;;10.60;99.90;;;;;;5095921;28;20020;-77
2022/04/15 04:54:29;;;;;;;7.32;4.72;;;10.60;99.90;;;;;;5097063;28;20016;-77
2022/04/15 04:56:55;;;;;;;10.32;5.30;;;10.60;99.90;;;;;;5095628;28;20393;-77
2022/04/15 04:59:22;;;;;;;6.45;4.40;;;10.60;99.90;;;;;;5095763;28;20028;-77
2022/04/15 05:01:48;;;;;;;7.00;4.40;;;10.60;99.90;;;;;;5096130;28;20020;-77
2022/04/15 05:04:14;;;;;;;9.43;4.65;;;10.70;99.90;;;;;;5096187;28;20047;-77
2022/04/15 05:06:39;;;;;;;5.78;4.15;;;10.70;99.90;;;;;;5095892;28;20020;-77
2022/04/15 05:09:05;;;;;;;6.65;4.32;;;10.70;99.90;;;;;;5097325;28;20046;-77
2022/04/15 05:11:30;;;;;;;6.43;4.70;;;10.80;99.90;;;;;;5096749;28;20024;-78
2022/04/15 05:13:56;;;;;;;8.57;4.90;;;10.80;99.90;;;;;;5097079;28;20031;-77
2022/04/15 05:16:22;;;;;;;9.30;4.30;;;10.80;99.90;;;;;;5096547;28;20073;-78
2022/04/15 05:18:47;;;;;;;10.15;4.43;;;10.80;99.90;;;;;;5089212;28;20056;-77
2022/04/15 05:21:13;;;;;;;7.68;4.25;;;10.80;99.90;;;;;;5092447;28;20453;-78
2022/04/15 05:23:39;;;;;;;9.07;4.30;;;10.90;99.90;;;;;;5078928;28;20131;-78
2022/04/15 05:26:05;;;;;;;8.23;4.35;;;10.90;99.90;;;;;;5086708;28;20047;-77
2022/04/15 05:28:35;;;;;;;6.72;4.00;;;10.90;99.90;;;;;;5091651;28;20067;-77
2022/04/15 05:31:00;;;;;;;6.53;4.40;;;10.90;99.90;;;;;;5092722;28;20020;-77
2022/04/15 05:33:26;;;;;;;6.53;4.35;;;11.00;99.90;;;;;;5092870;28;20028;-77
2022/04/15 05:35:51;;;;;;;6.28;4.55;;;11.00;99.90;;;;;;5092090;28;20028;-77
2022/04/15 05:38:18;;;;;;;7.60;4.43;;;11.10;99.90;;;;;;5092777;28;20032;-77
2022/04/15 05:40:43;;;;;;;8.43;5.03;;;11.20;99.90;;;;;;5089871;28;20031;-77
2022/04/15 05:43:09;;;;;;;9.13;5.50;;;11.30;99.90;;;;;;5089179;28;20016;-77
2022/04/15 05:45:35;;;;;;;8.00;5.45;;;11.30;99.90;;;;;;5089218;28;20663;-77
2022/04/15 05:48:00;;;;;;;8.18;4.80;;;11.30;99.90;;;;;;5090984;28;20016;-77
2022/04/15 05:50:26;;;;;;;8.82;4.70;;;11.40;99.90;;;;;;5092373;28;20019;-77
2022/04/15 05:52:51;;;;;;;7.43;4.68;;;11.30;99.90;;;;;;5090379;28;20368;-77
2022/04/15 05:55:17;;;;;;;12.05;5.07;;;11.40;99.90;;;;;;5078211;28;20036;-77
2022/04/15 05:57:43;;;;;;;6.35;5.00;;;11.40;99.90;;;;;;5090038;28;20029;-77
2022/04/15 06:00:09;;;;;;;10.27;5.32;;;11.60;99.90;;;;;;5081328;28;20044;-77
2022/04/15 06:02:35;;;;;;;7.22;5.15;;;11.50;99.90;;;;;;5090933;28;20032;-76
2022/04/15 06:05:01;;;;;;;11.38;5.80;;;11.60;99.90;;;;;;5092463;28;20074;-76
2022/04/15 06:07:26;;;;;;;11.43;5.70;;;11.70;99.90;;;;;;5090622;28;20024;-77
2022/04/15 06:09:52;;;;;;;11.52;5.65;;;11.70;99.90;;;;;;5091110;28;20030;-77
2022/04/15 06:12:21;;;;;;;10.82;6.70;;;11.80;99.90;;;;;;5088296;28;20028;-77
2022/04/15 06:14:47;;;;;;;11.90;7.13;;;11.90;99.90;;;;;;5081576;28;20028;-77
2022/04/15 06:17:13;;;;;;;10.48;6.40;;;12.00;99.90;;;;;;5091380;28;20024;-77
2022/04/15 06:19:39;;;;;;;10.02;6.30;;;12.10;99.90;;;;;;5091552;28;20039;-77
2022/04/15 06:22:04;;;;;;;10.30;6.50;;;12.10;99.90;;;;;;5090417;28;20062;-77
2022/04/15 06:24:30;;;;;;;10.32;6.28;;;12.20;99.90;;;;;;5090166;28;20461;-77
2022/04/15 06:26:55;;;;;;;9.57;6.88;;;12.30;99.90;;;;;;5090499;28;20113;-77
2022/04/15 06:29:21;;;;;;;13.90;7.40;;;12.30;99.90;;;;;;5090048;28;20043;-77
2022/04/15 06:31:47;;;;;;;15.27;7.20;;;12.50;99.90;;;;;;5090111;28;20020;-76
2022/04/15 06:34:13;;;;;;;14.95;8.75;;;12.50;99.90;;;;;;5090623;28;20025;-76
2022/04/15 06:36:38;;;;;;;12.95;8.32;;;12.70;99.90;;;;;;5091143;28;20043;-77
2022/04/15 06:39:04;;;;;;;14.00;8.05;;;12.80;99.90;;;;;;5090197;28;20044;-76
2022/04/15 06:41:30;;;;;;;16.55;9.82;;;12.90;99.90;;;;;;5090008;28;20043;-77
2022/04/15 06:43:55;;;;;;;15.38;9.52;;;13.00;99.90;;;;;;5074344;28;20031;-76
2022/04/15 06:46:21;;;;;;;16.00;10.20;;;13.00;99.90;;;;;;5089837;28;20039;-77
2022/04/15 06:48:46;;;;;;;19.45;10.27;;;13.10;99.90;;;;;;5090233;28;20039;-77
2022/04/15 06:51:12;;;;;;;16.63;10.73;;;13.10;99.90;;;;;;5090429;28;20070;-77
2022/04/15 06:53:37;;;;;;;16.60;10.40;;;13.20;99.90;;;;;;5091080;28;20024;-78
2022/04/15 06:56:03;;;;;;;18.63;11.13;;;13.30;99.90;;;;;;5090294;28;20401;-77
2022/04/15 06:58:29;;;;;;;19.42;12.13;;;13.40;99.90;;;;;;5091660;28;20040;-77
2022/04/15 07:00:55;;;;;;;19.30;11.60;;;13.40;99.90;;;;;;5091935;28;20494;-76
2022/04/15 07:03:20;;;;;;;16.35;10.90;;;13.50;99.90;;;;;;5091780;28;20027;-77
2022/04/15 07:05:46;;;;;;;19.73;11.48;;;13.50;99.90;;;;;;5090790;28;20392;-77
2022/04/15 07:08:12;;;;;;;19.77;11.85;;;13.60;99.90;;;;;;5090105;28;20540;-77
2022/04/15 07:10:38;;;;;;;18.77;11.73;;;13.70;99.90;;;;;;5089274;28;20024;-77
2022/04/15 07:13:07;;;;;;;18.67;11.68;;;13.70;99.90;;;;;;5079684;28;20059;-77
2022/04/15 07:15:32;;;;;;;20.23;11.65;;;13.70;99.90;;;;;;5087577;28;20059;-77
2022/04/15 07:18:00;;;;;;;16.67;11.23;;;13.60;99.90;;;;;;5089368;28;20051;-77
2022/04/15 07:20:26;;;;;;;20.65;12.63;;;13.70;99.90;;;;;;5089163;28;20032;-77
2022/04/15 07:23:01;;;;;;;20.27;13.15;;;13.60;99.90;;;;;;5090641;28;20028;-77
2022/04/15 07:25:27;;;;;;;18.55;12.45;;;13.60;99.90;;;;;;5088796;28;20060;-77
2022/04/15 07:27:55;;;;;;;20.55;12.10;;;13.70;99.90;;;;;;5089418;28;20074;-77
2022/04/15 07:30:21;;;;;;;24.75;13.05;;;13.70;99.90;;;;;;5089146;28;20036;-77
2022/04/15 07:32:47;;;;;;;21.63;13.32;;;13.80;99.90;;;;;;5090757;28;20024;-77
2022/04/15 07:35:12;;;;;;;20.85;12.63;;;13.80;99.90;;;;;;5089236;28;20440;-77
2022/04/15 07:37:38;;;;;;;21.27;13.15;;;13.80;99.90;;;;;;5088725;28;20056;-77
2022/04/15 07:40:05;;;;;;;23.10;13.52;;;13.80;99.90;;;;;;5089052;28;20484;-77
2022/04/15 07:42:30;;;;;;;24.33;13.82;;;13.80;99.90;;;;;;5083633;28;20050;-77
2022/04/15 07:44:56;;;;;;;21.90;13.07;;;13.90;99.90;;;;;;5082164;28;20024;-77
2022/04/15 07:47:23;;;;;;;21.67;12.77;;;14.00;99.90;;;;;;5089970;28;20020;-78
2022/04/15 07:49:50;;;;;;;20.83;12.55;;;14.00;99.90;;;;;;5088956;28;20078;-77
2022/04/15 07:52:16;;;;;;;22.42;13.05;;;14.10;99.90;;;;;;5088942;28;20449;-77
2022/04/15 07:54:42;;;;;;;23.83;14.18;;;14.10;99.90;;;;;;5088813;28;20114;-77
2022/04/15 07:57:07;;;;;;;20.75;13.73;;;14.20;99.90;;;;;;5088878;28;20052;-77
2022/04/15 07:59:33;;;;;;;22.17;13.30;;;14.20;99.90;;;;;;5088481;28;20461;-78
2022/04/15 08:01:59;;;;;;;19.70;13.43;;;14.30;99.90;;;;;;5089315;28;20016;-77
2022/04/15 08:04:25;;;;;;;25.38;13.80;;;14.30;99.90;;;;;;5088608;28;20094;-78
2022/04/15 08:06:52;;;;;;;21.98;13.27;;;14.40;99.90;;;;;;5090207;28;20020;-77
2022/04/15 08:09:18;;;;;;;21.42;12.98;;;14.50;99.90;;;;;;5088894;28;20032;-77
2022/04/15 08:11:43;;;;;;;22.73;13.00;;;14.50;99.90;;;;;;5089037;28;20046;-78
2022/04/15 08:14:09;;;;;;;19.50;12.57;;;14.60;99.90;;;;;;5076446;28;20512;-77
2022/04/15 08:16:35;;;;;;;20.00;13.00;;;14.60;99.90;;;;;;5087660;28;20035;-77
2022/04/15 08:19:00;;;;;;;22.63;13.65;;;14.70;99.90;;;;;;5089351;28;20369;-77
2022/04/15 08:21:26;;;;;;;23.38;14.27;;;14.70;99.90;;;;;;5089032;28;20116;-79
2022/04/15 08:23:52;;;;;;;23.02;13.50;;;14.80;99.90;;;;;;5089348;28;20028;-78
2022/04/15 08:26:17;;;;;;;21.00;13.05;;;14.80;99.90;;;;;;5090226;28;20032;-78
2022/04/15 08:28:43;;;;;;;19.60;12.75;;;14.80;99.90;;;;;;5088996;28;20032;-78
2022/04/15 08:31:09;;;;;;;20.27;12.65;;;14.90;99.90;;;;;;5088820;28;20031;-78
2022/04/15 08:33:35;;;;;;;22.65;13.38;;;14.90;99.90;;;;;;5088204;28;20123;-78
2022/04/15 08:36:02;;;;;;;20.58;12.45;;;15.00;99.90;;;;;;5088458;28;20020;-78
2022/04/15 08:38:28;;;;;;;23.13;12.55;;;15.10;99.90;;;;;;5089153;28;20060;-79
2022/04/15 08:40:58;;;;;;;20.52;12.93;;;15.10;99.90;;;;;;5088288;28;20538;-78
2022/04/15 08:43:25;;;;;;;22.98;12.55;;;15.20;99.90;;;;;;5089758;28;20030;-78
2022/04/15 08:45:51;;;;;;;20.40;12.77;;;15.30;99.90;;;;;;5090210;28;20027;-78
2022/04/15 08:48:17;;;;;;;23.15;13.65;;;15.30;99.90;;;;;;5089462;28;20556;-78
2022/04/15 08:50:43;;;;;;;22.15;12.85;;;15.40;99.90;;;;;;5088321;28;20123;-78
2022/04/15 08:53:11;;;;;;;23.70;13.00;;;15.40;99.90;;;;;;5088231;28;20115;-78
2022/04/15 08:55:36;;;;;;;22.85;13.27;;;15.50;99.90;;;;;;5087053;28;20056;-78
2022/04/15 08:58:03;;;;;;;20.45;13.20;;;15.60;99.90;;;;;;5088088;28;20039;-78
2022/04/15 09:00:30;;;;;;;21.75;12.10;;;15.70;99.90;;;;;;5088815;28;20073;-78
2022/04/15 09:02:56;;;;;;;21.45;13.35;;;15.80;99.90;;;;;;5088076;28;20048;-78
2022/04/15 09:05:28;;;;;;;23.35;12.90;;;15.80;99.90;;;;;;5087867;28;20031;-78
2022/04/15 09:08:25;;;;;;;23.08;12.90;;;15.80;99.90;;;;;;5087358;28;20519;-78
2022/04/15 09:10:59;;;;;;;20.42;12.65;;;16.00;99.90;;;;;;5075539;28;20035;-78
2022/04/15 09:13:31;;;;;;;22.50;12.80;;;16.10;99.90;;;;;;5078054;28;20028;-77
2022/04/15 09:15:59;;;;;;;22.35;12.02;;;16.20;99.90;;;;;;5074151;28;20031;-78
2022/04/15 09:18:36;;;;;;;20.30;11.95;;;16.20;99.90;;;;;;5089086;28;20062;-78
2022/04/15 09:21:17;;;;;;;23.27;12.63;;;16.30;99.90;;;;;;5089970;28;20103;-78
2022/04/15 09:23:52;;;;;;;18.83;11.25;;;16.40;99.90;;;;;;5088121;28;20603;-78
2022/04/15 09:26:19;;;;;;;20.85;11.85;;;16.50;99.90;;;;;;5088464;28;20591;-78
2022/04/15 09:28:45;;;;;;;18.38;11.18;;;16.50;99.90;;;;;;5089701;28;20055;-78
2022/04/15 09:31:16;;;;;;;19.20;11.60;;;16.60;99.90;;;;;;5092343;28;20024;-79
2022/04/15 09:34:02;;;;;;;18.38;11.23;;;16.70;99.90;;;;;;5092964;28;20041;-78
2022/04/15 09:36:34;;;;;;;21.77;11.48;;;16.80;99.90;;;;;;5091721;28;20052;-79
2022/04/15 09:39:11;;;;;;;17.08;11.43;;;16.90;99.40;;;;;;5092346;28;20042;-78
2022/04/15 09:41:39;;;;;;;19.33;11.77;;;17.00;98.80;;;;;;5091660;28;20024;-79
2022/04/15 09:44:06;;;;;;;19.33;10.82;;;17.00;98.30;;;;;;5079643;28;20020;-79
2022/04/15 09:46:31;;;;;;;17.52;11.23;;;17.10;98.30;;;;;;5091558;28;20126;-79
2022/04/15 09:49:08;;;;;;;21.00;11.00;;;17.20;98.00;;;;;;5093200;28;20175;-78
2022/04/15 09:51:45;;;;;;;17.42;10.80;;;17.30;97.20;;;;;;5091536;28;20024;-79
2022/04/15 09:54:23;;;;;;;14.70;9.95;;;17.30;96.80;;;;;;5091563;28;20024;-79
2022/04/15 09:56:50;;;;;;;18.58;10.35;;;17.40;96.50;;;;;;5090483;28;20051;-78
2022/04/15 09:59:19;;;;;;;16.83;9.68;;;17.40;96.10;;;;;;5091266;28;20048;-78
2022/04/15 10:01:47;;;;;;;18.65;10.30;;;17.50;95.70;;;;;;5092315;28;20081;-79
2022/04/15 10:04:14;;;;;;;15.77;9.93;;;17.60;95.50;;;;;;5092531;28;20066;-79
2022/04/15 10:06:41;;;;;;;16.63;9.65;;;17.60;94.50;;;;;;5092037;28;20017;-79
2022/04/15 10:09:11;;;;;;;17.58;10.40;;;17.70;95.80;;;;;;5091755;28;20453;-79
2022/04/15 10:11:41;;;;;;;17.10;9.73;;;17.70;94.30;;;;;;5090463;28;20101;-79
2022/04/15 10:14:08;;;;;;;13.13;9.02;;;17.80;94.60;;;;;;5078733;28;20047;-79
2022/04/15 10:16:35;;;;;;;15.98;9.48;;;17.80;94.00;;;;;;5092502;28;20028;-79
2022/04/15 10:19:04;;;;;;;16.23;9.27;;;17.90;94.50;;;;;;5090849;28;20028;-78
2022/04/15 10:21:56;;;;;;;16.05;9.88;;;17.90;94.20;;;;;;5090357;28;20063;-79
2022/04/15 10:24:24;;;;;;;;;;;18.00;92.90;;;;;;5073629;28;20066;-79
2022/04/15 10:26:57;;;;;;;16.90;10.27;;;18.00;91.50;;;;;;5091907;28;19911;-79
2022/04/15 10:29:23;;;;;;;17.02;9.90;;;18.00;92.80;;;;;;5090713;28;20040;-79
2022/04/15 10:31:48;;;;;;;17.58;10.90;;;18.00;93.00;;;;;;5091771;28;20028;-79
2022/04/15 10:34:19;;;;;;;16.45;10.55;;;18.00;92.80;;;;;;5090916;28;20061;-79
2022/04/15 10:36:54;;;;;;;16.42;10.05;;;18.10;92.40;;;;;;5089810;28;20123;-79
2022/04/15 10:39:22;;;;;;;15.85;9.95;;;18.20;92.10;;;;;;5090239;28;20040;-79
2022/04/15 10:41:53;;;;;;;16.58;10.32;;;18.20;92.00;;;;;;5090881;28;20111;-78
2022/04/15 10:44:30;;;;;;;19.45;10.30;;;18.30;91.80;;;;;;5078363;28;20020;-78
2022/04/15 10:47:19;;;;;;;17.02;10.05;;;18.30;90.40;;;;;;5090468;28;20032;-78
2022/04/15 10:50:06;;;;;;;15.75;10.05;;;18.30;91.60;;;;;;5080514;28;20064;-78
2022/04/15 10:52:34;;;;;;;13.57;9.38;;;18.40;89.80;;;;;;5089800;28;20020;-79
2022/04/15 10:55:08;;;;;;;15.35;9.77;;;18.50;90.10;;;;;;5091219;28;20095;-78
2022/04/15 10:57:40;;;;;;;14.00;9.30;;;18.50;90.10;;;;;;5089475;28;20127;-79
2022/04/15 11:03:20;;;;;;;17.83;10.35;;;18.50;88.90;;;;;;5091659;28;20487;-79
2022/04/15 11:05:46;;;;;;;16.25;9.45;;;18.60;89.00;;;;;;5089379;28;20028;-78
2022/04/15 11:08:13;;;;;;;16.83;9.65;;;18.70;89.20;;;;;;5089731;28;20069;-78
2022/04/15 11:10:40;;;;;;;15.52;9.65;;;18.70;88.70;;;;;;5089610;28;20020;-79
2022/04/15 11:13:10;;;;;;;13.23;8.98;;;18.70;88.20;;;;;;5081231;28;20024;-78
2022/04/15 11:16:00;;;;;;;15.60;8.48;;;18.80;87.00;;;;;;5088398;28;20106;-78
2022/04/15 11:18:48;;;;;;;14.38;9.13;;;18.90;87.40;;;;;;5090056;28;20372;-78
2022/04/15 11:21:19;;;;;;;13.02;8.77;;;18.90;87.00;;;;;;5089787;28;20026;-78
2022/04/15 11:24:05;;;;;;;15.43;8.45;;;18.90;82.80;;;;;;5089467;28;20085;-79
2022/04/15 11:26:33;;;;;;;17.25;8.23;;;18.90;83.50;;;;;;5090008;28;20062;-79
2022/04/15 11:29:00;;;;;;;12.65;7.47;;;18.90;84.10;;;;;;5090499;28;20105;-77
2022/04/15 11:31:35;;;;;;;13.48;8.45;;;19.00;84.20;;;;;;5090461;28;20024;-79
2022/04/15 11:34:06;;;;;;;16.13;8.45;;;19.10;87.00;;;;;;5075714;28;20016;-78
2022/04/15 11:36:37;;;;;;;14.43;8.23;;;19.10;84.70;;;;;;5091081;28;20027;-78
2022/04/15 11:39:05;;;;;;;13.63;7.85;;;19.30;85.50;;;;;;5090221;28;20028;-78
2022/04/15 11:41:31;;;;;;;12.73;7.70;;;19.30;85.10;;;;;;5091318;28;20024;-78
2022/04/15 11:44:06;;;;;;;14.80;8.30;;;19.30;83.40;;;;;;5090799;28;20098;-78
2022/04/15 11:46:49;;;;;;;12.27;7.88;;;19.30;83.90;;;;;;5091449;28;20416;-78
2022/04/15 11:49:26;;;;;;;11.23;8.13;;;19.30;81.70;;;;;;5090045;28;20038;-78
2022/04/15 11:51:57;;;;;;;11.40;6.93;;;19.40;83.40;;;;;;5087845;28;20028;-79
2022/04/15 11:54:24;;;;;;;13.20;7.47;;;19.40;82.30;;;;;;5090812;28;20028;-79
2022/04/15 11:56:57;;;;;;;12.55;7.78;;;19.50;85.30;;;;;;5089809;28;20044;-78
2022/04/15 11:59:24;;;;;;;10.52;6.97;;;19.60;84.40;;;;;;5090398;28;20476;-78
2022/04/15 12:01:50;;;;;;;13.13;6.53;;;19.60;82.00;;;;;;5090068;28;20024;-78
2022/04/15 12:04:17;;;;;;;11.27;7.28;;;19.60;80.70;;;;;;5089343;28;20024;-79
2022/04/15 12:06:42;;;;;;;12.43;6.30;;;19.60;81.20;;;;;;5088962;28;20465;-79
2022/04/15 12:09:14;;;;;;;12.32;7.15;;;19.70;80.30;;;;;;5090416;28;20065;-79
2022/04/15 12:11:40;;;;;;;;;;;19.70;76.20;;;;;;5090247;28;20020;-79
2022/04/15 12:14:07;;;;;;;12.38;7.03;;;19.80;76.40;;;;;;5077154;28;20421;-79
2022/04/15 12:16:35;;;;;;;12.23;6.50;;;19.90;77.80;;;;;;5089146;28;20024;-79
2022/04/15 12:19:02;;;;;;;10.35;6.32;;;20.00;75.10;;;;;;5090672;28;20060;-78
2022/04/15 12:21:30;;;;;;;10.63;6.82;;;20.20;78.80;;;;;;5090999;28;20567;-78
2022/04/15 12:24:10;;;;;;;9.68;6.15;;;20.30;74.00;;;;;;5074876;28;20008;-78
2022/04/15 12:26:50;;;;;;;7.70;5.03;;;20.40;71.80;;;;;;5090526;28;20031;-79
2022/04/15 12:32:22;;;;;;;7.57;4.90;;;20.60;69.40;;;;;;5071699;28;20040;-78
2022/04/15 12:35:10;;;;;;;9.32;4.43;;;20.80;67.30;;;;;;5071492;28;20462;-79
2022/04/15 12:37:46;;;;;;;8.57;4.38;;;20.90;68.10;;;;;;5090846;28;20035;-78
2022/04/15 12:40:12;;;;;;;7.05;4.43;;;21.10;68.00;;;;;;5090775;28;20040;-79
2022/04/15 12:42:40;;;;;;;7.82;4.68;;;21.20;66.50;;;;;;5091297;28;20429;-78
2022/04/15 12:45:19;;;;;;;8.00;4.55;;;21.30;67.10;;;;;;5090887;28;20454;-78
2022/04/15 12:48:04;;;;;;;8.38;4.53;;;21.40;63.30;;;;;;5090239;28;20028;-79